Converse, SC (29329)

04:08 AM EDT del 27 Agosto 2016 (GMT -0400)
Cannons Campground | | Change Station

Alt. 850 ft 35.01 °N, 81.87 °W | Updated 1 minute ago

Clear
Sereno
73.7 °F
Sembra 70 °F
N
0.0
Vento Variabile Vento da ONO
Gusts 0.0 mph

Oggi
Massima -- | Minima -- °F
--% Possibilità di precip.
Ieri
Massima -- | Minima -- °F
Precip. -- in
Pressione 30.10 in
Visibilità 10.0 miglia
Nuvole Sereno
Indice di calore 70 °F
Punto di rugiada 72 °F
Umidità 96%
Piovosità 0.00 in
Spessore del manto nevoso Non disponibile.
6:56 AM 8:00 PM
Luna calante, 26% visible
METAR KSPA 270755Z AUTO 00000KT 10SM CLR 23/21 A3010 RMK AO2
Pressione 30.10 in
Visibilità 10.0 miglia
Nuvole Sereno
Indice di calore 70 °F
Punto di rugiada 72 °F
Umidità 96%
Piovosità 0.00 in
Spessore del manto nevoso Non disponibile.
6:56 AM 8:00 PM
Luna calante, 26% visible
METAR KSPA 270755Z AUTO 00000KT 10SM CLR 23/21 A3010 RMK AO2

10-Day Weather Forecast

Almanac

Astronomia

Aug. 27, 2016 Alba Tramonto
Ora attuale
Crepuscolo civile
Crepuscolo nautico
Crepuscolo astronomico
Luna
Estensione della luce visibile
Lunghezza del giorno
Tomorrow will be .
, % of the Moon is Illuminated

Gli estremi di oggi

State Highs State Lows

Community

WunderPhotos

Upload Photos

1,935,303 foto caricate!

WunderBlog® & News

Nearby

Qualità dell'aria

  Qualità dell'aria Indice AQ Inquinante
Not available.

Profondità neve

Stazione Profondità Altitudine

Attività sismica

Città  Distanza Mag. Data & Ora
Minimo Magnitudo Mostrato è 2.5.

Temperature delle acque costiere

Località Temperatura

Stations

Stazioni meteo nelle vicinanze

Ubicazione della stazione Temp. Raffreddamento del vento Punto di rugiada Umidità Vento Precip. Alt. Aggiornato Tipo
                   

Watches & Warnings

There are currently no watches in effect.